sensor_id;sensor_type;location;lat;lon;timestamp;P1;durP1;ratioP1;P2;durP2;ratioP2
23232;SDS011;11785;49.500;8.288;2023-05-07T00:00:32;8.35;;;3.88;;
23232;SDS011;11785;49.500;8.288;2023-05-07T00:02:59;8.05;;;3.40;;
23232;SDS011;11785;49.500;8.288;2023-05-07T00:05:24;5.85;;;3.92;;
23232;SDS011;11785;49.500;8.288;2023-05-07T00:07:50;6.22;;;4.20;;
23232;SDS011;11785;49.500;8.288;2023-05-07T00:10:17;6.32;;;3.92;;
23232;SDS011;11785;49.500;8.288;2023-05-07T00:12:43;7.57;;;4.35;;
23232;SDS011;11785;49.500;8.288;2023-05-07T00:15:09;6.18;;;4.50;;
23232;SDS011;11785;49.500;8.288;2023-05-07T00:17:35;9.73;;;4.10;;
23232;SDS011;11785;49.500;8.288;2023-05-07T00:20:01;6.35;;;4.10;;
23232;SDS011;11785;49.500;8.288;2023-05-07T00:22:28;6.82;;;3.90;;
23232;SDS011;11785;49.500;8.288;2023-05-07T00:24:55;5.13;;;4.20;;
23232;SDS011;11785;49.500;8.288;2023-05-07T00:27:20;6.13;;;3.92;;
23232;SDS011;11785;49.500;8.288;2023-05-07T00:29:46;6.57;;;4.35;;
23232;SDS011;11785;49.500;8.288;2023-05-07T00:32:12;5.80;;;4.00;;
23232;SDS011;11785;49.500;8.288;2023-05-07T00:34:37;6.07;;;4.50;;
23232;SDS011;11785;49.500;8.288;2023-05-07T00:37:04;7.68;;;3.95;;
23232;SDS011;11785;49.500;8.288;2023-05-07T00:39:32;4.32;;;3.70;;
23232;SDS011;11785;49.500;8.288;2023-05-07T00:41:58;7.30;;;5.07;;
23232;SDS011;11785;49.500;8.288;2023-05-07T00:44:24;8.15;;;4.78;;
23232;SDS011;11785;49.500;8.288;2023-05-07T00:46:50;6.95;;;5.07;;
23232;SDS011;11785;49.500;8.288;2023-05-07T00:49:15;8.95;;;4.90;;
23232;SDS011;11785;49.500;8.288;2023-05-07T00:51:41;6.72;;;4.80;;
23232;SDS011;11785;49.500;8.288;2023-05-07T00:54:07;10.38;;;5.00;;
23232;SDS011;11785;49.500;8.288;2023-05-07T00:56:33;9.43;;;4.78;;
23232;SDS011;11785;49.500;8.288;2023-05-07T00:59:00;5.93;;;4.43;;
23232;SDS011;11785;49.500;8.288;2023-05-07T01:01:26;8.45;;;4.88;;
23232;SDS011;11785;49.500;8.288;2023-05-07T01:03:52;6.03;;;4.40;;
23232;SDS011;11785;49.500;8.288;2023-05-07T01:06:18;8.25;;;4.85;;
23232;SDS011;11785;49.500;8.288;2023-05-07T01:08:46;11.43;;;4.88;;
23232;SDS011;11785;49.500;8.288;2023-05-07T01:11:12;6.45;;;4.40;;
23232;SDS011;11785;49.500;8.288;2023-05-07T01:13:38;9.05;;;4.93;;
23232;SDS011;11785;49.500;8.288;2023-05-07T01:16:05;7.03;;;4.57;;
23232;SDS011;11785;49.500;8.288;2023-05-07T01:18:31;6.88;;;4.70;;
23232;SDS011;11785;49.500;8.288;2023-05-07T01:20:58;8.00;;;4.13;;
23232;SDS011;11785;49.500;8.288;2023-05-07T01:23:24;5.18;;;3.92;;
23232;SDS011;11785;49.500;8.288;2023-05-07T01:25:52;5.68;;;3.80;;
23232;SDS011;11785;49.500;8.288;2023-05-07T01:28:18;5.13;;;3.80;;
23232;SDS011;11785;49.500;8.288;2023-05-07T01:30:44;4.22;;;3.63;;
23232;SDS011;11785;49.500;8.288;2023-05-07T01:33:19;4.60;;;3.83;;
23232;SDS011;11785;49.500;8.288;2023-05-07T01:35:50;3.90;;;3.50;;
23232;SDS011;11785;49.500;8.288;2023-05-07T01:38:18;5.40;;;3.70;;
23232;SDS011;11785;49.500;8.288;2023-05-07T01:40:44;5.60;;;3.30;;
23232;SDS011;11785;49.500;8.288;2023-05-07T01:43:10;6.03;;;3.40;;
23232;SDS011;11785;49.500;8.288;2023-05-07T01:45:36;5.78;;;3.75;;
23232;SDS011;11785;49.500;8.288;2023-05-07T01:48:03;5.32;;;3.35;;
23232;SDS011;11785;49.500;8.288;2023-05-07T01:50:32;4.75;;;3.90;;
23232;SDS011;11785;49.500;8.288;2023-05-07T01:52:59;5.07;;;3.75;;
23232;SDS011;11785;49.500;8.288;2023-05-07T01:55:27;8.48;;;4.20;;
23232;SDS011;11785;49.500;8.288;2023-05-07T01:57:52;6.22;;;3.78;;
23232;SDS011;11785;49.500;8.288;2023-05-07T02:00:18;4.97;;;3.42;;
23232;SDS011;11785;49.500;8.288;2023-05-07T02:02:44;4.75;;;3.50;;
23232;SDS011;11785;49.500;8.288;2023-05-07T02:05:10;5.93;;;3.80;;
23232;SDS011;11785;49.500;8.288;2023-05-07T02:07:35;6.30;;;3.80;;
23232;SDS011;11785;49.500;8.288;2023-05-07T02:10:01;7.80;;;3.50;;
23232;SDS011;11785;49.500;8.288;2023-05-07T02:12:27;7.43;;;4.15;;
23232;SDS011;11785;49.500;8.288;2023-05-07T02:14:53;5.03;;;3.97;;
23232;SDS011;11785;49.500;8.288;2023-05-07T02:17:19;5.65;;;4.03;;
23232;SDS011;11785;49.500;8.288;2023-05-07T02:19:45;4.72;;;3.58;;
23232;SDS011;11785;49.500;8.288;2023-05-07T02:22:10;4.50;;;3.78;;
23232;SDS011;11785;49.500;8.288;2023-05-07T02:24:36;6.50;;;4.00;;
23232;SDS011;11785;49.500;8.288;2023-05-07T02:27:01;6.43;;;4.25;;
23232;SDS011;11785;49.500;8.288;2023-05-07T02:29:28;7.65;;;4.20;;
23232;SDS011;11785;49.500;8.288;2023-05-07T02:31:54;5.72;;;3.85;;
23232;SDS011;11785;49.500;8.288;2023-05-07T02:34:20;6.93;;;4.95;;
23232;SDS011;11785;49.500;8.288;2023-05-07T02:36:46;6.18;;;4.13;;
23232;SDS011;11785;49.500;8.288;2023-05-07T02:39:12;4.88;;;4.25;;
23232;SDS011;11785;49.500;8.288;2023-05-07T02:41:38;8.48;;;4.57;;
23232;SDS011;11785;49.500;8.288;2023-05-07T02:44:04;5.65;;;4.38;;
23232;SDS011;11785;49.500;8.288;2023-05-07T02:46:30;6.75;;;4.80;;
23232;SDS011;11785;49.500;8.288;2023-05-07T02:48:55;6.65;;;4.50;;
23232;SDS011;11785;49.500;8.288;2023-05-07T02:51:21;8.50;;;5.05;;
23232;SDS011;11785;49.500;8.288;2023-05-07T02:53:48;6.20;;;4.90;;
23232;SDS011;11785;49.500;8.288;2023-05-07T02:56:14;6.88;;;5.00;;
23232;SDS011;11785;49.500;8.288;2023-05-07T02:58:39;8.20;;;4.57;;
23232;SDS011;11785;49.500;8.288;2023-05-07T03:01:05;5.00;;;4.50;;
23232;SDS011;11785;49.500;8.288;2023-05-07T03:03:31;8.75;;;4.60;;
23232;SDS011;11785;49.500;8.288;2023-05-07T03:05:56;7.57;;;4.63;;
23232;SDS011;11785;49.500;8.288;2023-05-07T03:08:22;5.25;;;4.47;;
23232;SDS011;11785;49.500;8.288;2023-05-07T03:10:48;6.15;;;4.60;;
23232;SDS011;11785;49.500;8.288;2023-05-07T03:13:13;6.40;;;4.32;;
23232;SDS011;11785;49.500;8.288;2023-05-07T03:15:39;7.28;;;4.35;;
23232;SDS011;11785;49.500;8.288;2023-05-07T03:18:05;5.72;;;4.90;;
23232;SDS011;11785;49.500;8.288;2023-05-07T03:20:30;5.50;;;4.32;;
23232;SDS011;11785;49.500;8.288;2023-05-07T03:22:56;5.80;;;4.55;;
23232;SDS011;11785;49.500;8.288;2023-05-07T03:25:22;7.10;;;5.00;;
23232;SDS011;11785;49.500;8.288;2023-05-07T03:27:47;6.30;;;4.10;;
23232;SDS011;11785;49.500;8.288;2023-05-07T03:30:13;8.73;;;5.38;;
23232;SDS011;11785;49.500;8.288;2023-05-07T03:32:38;8.18;;;4.80;;
23232;SDS011;11785;49.500;8.288;2023-05-07T03:35:04;5.75;;;5.15;;
23232;SDS011;11785;49.500;8.288;2023-05-07T03:37:30;7.30;;;5.28;;
23232;SDS011;11785;49.500;8.288;2023-05-07T03:39:56;5.78;;;4.72;;
23232;SDS011;11785;49.500;8.288;2023-05-07T03:42:21;10.35;;;4.85;;
23232;SDS011;11785;49.500;8.288;2023-05-07T03:44:47;6.35;;;5.22;;
23232;SDS011;11785;49.500;8.288;2023-05-07T03:47:12;7.03;;;4.68;;
23232;SDS011;11785;49.500;8.288;2023-05-07T03:49:38;9.23;;;5.13;;
23232;SDS011;11785;49.500;8.288;2023-05-07T03:52:04;7.85;;;4.88;;
23232;SDS011;11785;49.500;8.288;2023-05-07T03:54:30;10.25;;;5.75;;
23232;SDS011;11785;49.500;8.288;2023-05-07T03:56:56;6.63;;;4.72;;
23232;SDS011;11785;49.500;8.288;2023-05-07T03:59:21;7.97;;;5.28;;
23232;SDS011;11785;49.500;8.288;2023-05-07T04:01:47;8.45;;;5.20;;
23232;SDS011;11785;49.500;8.288;2023-05-07T04:04:13;7.90;;;4.65;;
23232;SDS011;11785;49.500;8.288;2023-05-07T04:06:39;8.50;;;5.18;;
23232;SDS011;11785;49.500;8.288;2023-05-07T04:09:06;7.70;;;4.97;;
23232;SDS011;11785;49.500;8.288;2023-05-07T04:11:31;6.80;;;4.13;;
23232;SDS011;11785;49.500;8.288;2023-05-07T04:13:57;7.50;;;5.25;;
23232;SDS011;11785;49.500;8.288;2023-05-07T04:16:22;6.65;;;4.85;;
23232;SDS011;11785;49.500;8.288;2023-05-07T04:18:48;6.57;;;5.10;;
23232;SDS011;11785;49.500;8.288;2023-05-07T04:21:17;6.78;;;4.80;;
23232;SDS011;11785;49.500;8.288;2023-05-07T04:23:45;7.13;;;4.85;;
23232;SDS011;11785;49.500;8.288;2023-05-07T04:26:11;9.50;;;5.43;;
23232;SDS011;11785;49.500;8.288;2023-05-07T04:28:37;11.20;;;4.80;;
23232;SDS011;11785;49.500;8.288;2023-05-07T04:31:04;10.15;;;5.00;;
23232;SDS011;11785;49.500;8.288;2023-05-07T04:33:30;7.55;;;5.00;;
23232;SDS011;11785;49.500;8.288;2023-05-07T04:35:56;9.80;;;5.22;;
23232;SDS011;11785;49.500;8.288;2023-05-07T04:38:22;6.80;;;5.47;;
23232;SDS011;11785;49.500;8.288;2023-05-07T04:40:48;9.65;;;4.60;;
23232;SDS011;11785;49.500;8.288;2023-05-07T04:43:14;8.35;;;4.90;;
23232;SDS011;11785;49.500;8.288;2023-05-07T04:45:40;9.90;;;4.97;;
23232;SDS011;11785;49.500;8.288;2023-05-07T04:48:06;11.95;;;4.80;;
23232;SDS011;11785;49.500;8.288;2023-05-07T04:50:33;7.40;;;4.97;;
23232;SDS011;11785;49.500;8.288;2023-05-07T04:52:59;6.80;;;4.72;;
23232;SDS011;11785;49.500;8.288;2023-05-07T04:55:24;6.57;;;4.55;;
23232;SDS011;11785;49.500;8.288;2023-05-07T04:57:51;6.82;;;4.65;;
23232;SDS011;11785;49.500;8.288;2023-05-07T05:00:17;6.65;;;4.72;;
23232;SDS011;11785;49.500;8.288;2023-05-07T05:02:44;8.52;;;5.07;;
23232;SDS011;11785;49.500;8.288;2023-05-07T05:05:10;7.80;;;4.57;;
23232;SDS011;11785;49.500;8.288;2023-05-07T05:07:36;7.78;;;4.55;;
23232;SDS011;11785;49.500;8.288;2023-05-07T05:10:02;8.27;;;5.30;;
23232;SDS011;11785;49.500;8.288;2023-05-07T05:12:28;8.65;;;4.90;;
23232;SDS011;11785;49.500;8.288;2023-05-07T05:14:55;8.00;;;4.30;;
23232;SDS011;11785;49.500;8.288;2023-05-07T05:17:20;6.20;;;4.70;;
23232;SDS011;11785;49.500;8.288;2023-05-07T05:19:46;8.93;;;4.70;;
23232;SDS011;11785;49.500;8.288;2023-05-07T05:22:11;7.57;;;4.85;;
23232;SDS011;11785;49.500;8.288;2023-05-07T05:24:37;7.65;;;4.55;;
23232;SDS011;11785;49.500;8.288;2023-05-07T05:27:03;6.53;;;5.00;;
23232;SDS011;11785;49.500;8.288;2023-05-07T05:29:28;7.00;;;4.63;;
23232;SDS011;11785;49.500;8.288;2023-05-07T05:31:56;6.60;;;5.15;;
23232;SDS011;11785;49.500;8.288;2023-05-07T05:34:21;6.20;;;4.30;;
23232;SDS011;11785;49.500;8.288;2023-05-07T05:36:47;5.28;;;4.65;;
23232;SDS011;11785;49.500;8.288;2023-05-07T05:39:13;7.22;;;4.30;;
23232;SDS011;11785;49.500;8.288;2023-05-07T05:41:39;7.88;;;4.57;;
23232;SDS011;11785;49.500;8.288;2023-05-07T05:44:05;7.68;;;4.28;;
23232;SDS011;11785;49.500;8.288;2023-05-07T05:46:30;7.95;;;4.63;;
23232;SDS011;11785;49.500;8.288;2023-05-07T05:48:56;6.97;;;3.97;;
23232;SDS011;11785;49.500;8.288;2023-05-07T05:51:22;4.80;;;4.30;;
23232;SDS011;11785;49.500;8.288;2023-05-07T05:53:48;7.78;;;4.57;;
23232;SDS011;11785;49.500;8.288;2023-05-07T05:56:13;7.22;;;4.90;;
23232;SDS011;11785;49.500;8.288;2023-05-07T05:58:40;6.22;;;4.63;;
23232;SDS011;11785;49.500;8.288;2023-05-07T06:01:06;15.15;;;10.32;;
23232;SDS011;11785;49.500;8.288;2023-05-07T06:03:31;11.15;;;6.85;;
23232;SDS011;11785;49.500;8.288;2023-05-07T06:05:57;6.03;;;4.40;;
23232;SDS011;11785;49.500;8.288;2023-05-07T06:08:23;6.43;;;3.72;;
23232;SDS011;11785;49.500;8.288;2023-05-07T06:10:48;10.20;;;4.30;;
23232;SDS011;11785;49.500;8.288;2023-05-07T06:13:14;5.00;;;3.80;;
23232;SDS011;11785;49.500;8.288;2023-05-07T06:18:26;6.78;;;4.30;;
23232;SDS011;11785;49.500;8.288;2023-05-07T06:20:51;6.47;;;5.80;;
23232;SDS011;11785;49.500;8.288;2023-05-07T06:23:18;3.97;;;3.13;;
23232;SDS011;11785;49.500;8.288;2023-05-07T06:25:49;7.97;;;5.00;;
23232;SDS011;11785;49.500;8.288;2023-05-07T06:28:15;7.93;;;5.35;;
23232;SDS011;11785;49.500;8.288;2023-05-07T06:30:41;3.85;;;3.45;;
23232;SDS011;11785;49.500;8.288;2023-05-07T06:33:09;4.53;;;3.72;;
23232;SDS011;11785;49.500;8.288;2023-05-07T06:35:35;6.82;;;3.55;;
23232;SDS011;11785;49.500;8.288;2023-05-07T06:38:00;8.13;;;3.40;;
23232;SDS011;11785;49.500;8.288;2023-05-07T06:40:26;6.38;;;3.53;;
23232;SDS011;11785;49.500;8.288;2023-05-07T06:42:52;5.40;;;3.30;;
23232;SDS011;11785;49.500;8.288;2023-05-07T06:45:18;6.10;;;3.40;;
23232;SDS011;11785;49.500;8.288;2023-05-07T06:47:45;3.95;;;3.13;;
23232;SDS011;11785;49.500;8.288;2023-05-07T06:50:10;4.47;;;3.38;;
23232;SDS011;11785;49.500;8.288;2023-05-07T06:52:36;5.25;;;3.35;;
23232;SDS011;11785;49.500;8.288;2023-05-07T06:55:02;4.80;;;3.13;;
23232;SDS011;11785;49.500;8.288;2023-05-07T06:57:28;5.13;;;3.05;;
23232;SDS011;11785;49.500;8.288;2023-05-07T06:59:53;9.07;;;3.38;;
23232;SDS011;11785;49.500;8.288;2023-05-07T07:02:19;4.93;;;3.35;;
23232;SDS011;11785;49.500;8.288;2023-05-07T07:04:44;5.47;;;3.08;;
23232;SDS011;11785;49.500;8.288;2023-05-07T07:07:10;5.43;;;3.03;;
23232;SDS011;11785;49.500;8.288;2023-05-07T07:09:36;7.78;;;3.10;;
23232;SDS011;11785;49.500;8.288;2023-05-07T07:12:01;3.95;;;2.97;;
23232;SDS011;11785;49.500;8.288;2023-05-07T07:14:27;11.38;;;8.02;;
23232;SDS011;11785;49.500;8.288;2023-05-07T07:16:53;4.00;;;3.60;;
23232;SDS011;11785;49.500;8.288;2023-05-07T07:19:18;4.65;;;3.25;;
23232;SDS011;11785;49.500;8.288;2023-05-07T07:21:45;3.20;;;2.90;;
23232;SDS011;11785;49.500;8.288;2023-05-07T07:24:11;6.93;;;2.92;;
23232;SDS011;11785;49.500;8.288;2023-05-07T07:26:37;3.63;;;2.88;;
23232;SDS011;11785;49.500;8.288;2023-05-07T07:29:04;4.22;;;2.70;;
23232;SDS011;11785;49.500;8.288;2023-05-07T07:31:30;5.97;;;3.30;;
23232;SDS011;11785;49.500;8.288;2023-05-07T07:33:56;3.72;;;2.97;;
23232;SDS011;11785;49.500;8.288;2023-05-07T07:36:21;4.65;;;2.60;;
23232;SDS011;11785;49.500;8.288;2023-05-07T07:38:47;4.10;;;2.80;;
23232;SDS011;11785;49.500;8.288;2023-05-07T07:41:12;3.28;;;2.55;;
23232;SDS011;11785;49.500;8.288;2023-05-07T07:43:38;4.75;;;2.95;;
23232;SDS011;11785;49.500;8.288;2023-05-07T07:46:03;4.25;;;2.53;;
23232;SDS011;11785;49.500;8.288;2023-05-07T07:48:29;5.25;;;2.95;;
23232;SDS011;11785;49.500;8.288;2023-05-07T07:50:55;3.70;;;3.00;;
23232;SDS011;11785;49.500;8.288;2023-05-07T07:53:21;3.08;;;2.58;;
23232;SDS011;11785;49.500;8.288;2023-05-07T07:55:46;3.97;;;2.40;;
23232;SDS011;11785;49.500;8.288;2023-05-07T07:58:12;5.75;;;2.78;;
23232;SDS011;11785;49.500;8.288;2023-05-07T08:00:37;5.03;;;2.72;;
23232;SDS011;11785;49.500;8.288;2023-05-07T08:03:03;4.00;;;2.58;;
23232;SDS011;11785;49.500;8.288;2023-05-07T08:05:29;4.88;;;2.67;;
23232;SDS011;11785;49.500;8.288;2023-05-07T08:07:55;3.17;;;2.50;;
23232;SDS011;11785;49.500;8.288;2023-05-07T08:10:21;4.00;;;2.70;;
23232;SDS011;11785;49.500;8.288;2023-05-07T08:12:49;3.58;;;2.70;;
23232;SDS011;11785;49.500;8.288;2023-05-07T08:15:16;2.80;;;2.55;;
23232;SDS011;11785;49.500;8.288;2023-05-07T08:17:42;3.00;;;2.60;;
23232;SDS011;11785;49.500;8.288;2023-05-07T08:20:08;4.43;;;2.85;;
23232;SDS011;11785;49.500;8.288;2023-05-07T08:22:34;4.03;;;2.47;;
23232;SDS011;11785;49.500;8.288;2023-05-07T08:25:01;7.00;;;2.88;;
23232;SDS011;11785;49.500;8.288;2023-05-07T08:27:27;2.80;;;2.05;;
23232;SDS011;11785;49.500;8.288;2023-05-07T08:29:53;8.07;;;2.53;;
23232;SDS011;11785;49.500;8.288;2023-05-07T08:32:18;4.53;;;2.40;;
23232;SDS011;11785;49.500;8.288;2023-05-07T08:34:44;3.13;;;2.45;;
23232;SDS011;11785;49.500;8.288;2023-05-07T08:37:09;3.55;;;2.70;;
23232;SDS011;11785;49.500;8.288;2023-05-07T08:39:35;7.63;;;2.38;;
23232;SDS011;11785;49.500;8.288;2023-05-07T08:42:01;3.72;;;2.67;;
23232;SDS011;11785;49.500;8.288;2023-05-07T08:44:29;5.43;;;2.67;;
23232;SDS011;11785;49.500;8.288;2023-05-07T08:46:58;5.90;;;2.42;;
23232;SDS011;11785;49.500;8.288;2023-05-07T08:49:27;3.63;;;2.40;;
23232;SDS011;11785;49.500;8.288;2023-05-07T08:51:53;5.07;;;2.45;;
23232;SDS011;11785;49.500;8.288;2023-05-07T08:54:19;3.33;;;2.53;;
23232;SDS011;11785;49.500;8.288;2023-05-07T08:56:46;3.75;;;2.50;;
23232;SDS011;11785;49.500;8.288;2023-05-07T08:59:11;4.30;;;2.92;;
23232;SDS011;11785;49.500;8.288;2023-05-07T09:01:37;3.17;;;2.67;;
23232;SDS011;11785;49.500;8.288;2023-05-07T09:04:03;5.78;;;2.58;;
23232;SDS011;11785;49.500;8.288;2023-05-07T09:06:30;4.45;;;2.90;;
23232;SDS011;11785;49.500;8.288;2023-05-07T09:08:56;4.15;;;2.78;;
23232;SDS011;11785;49.500;8.288;2023-05-07T09:11:23;3.97;;;2.75;;
23232;SDS011;11785;49.500;8.288;2023-05-07T09:13:53;10.20;;;2.58;;
23232;SDS011;11785;49.500;8.288;2023-05-07T09:16:21;3.33;;;2.10;;
23232;SDS011;11785;49.500;8.288;2023-05-07T09:18:48;2.83;;;2.40;;
23232;SDS011;11785;49.500;8.288;2023-05-07T09:21:17;2.97;;;2.10;;
23232;SDS011;11785;49.500;8.288;2023-05-07T09:23:44;3.10;;;2.03;;
23232;SDS011;11785;49.500;8.288;2023-05-07T09:26:09;4.03;;;2.10;;
23232;SDS011;11785;49.500;8.288;2023-05-07T09:28:37;3.55;;;2.60;;
23232;SDS011;11785;49.500;8.288;2023-05-07T09:31:05;5.70;;;2.13;;
23232;SDS011;11785;49.500;8.288;2023-05-07T09:33:30;4.78;;;2.40;;
23232;SDS011;11785;49.500;8.288;2023-05-07T09:35:56;4.55;;;2.22;;
23232;SDS011;11785;49.500;8.288;2023-05-07T09:38:21;2.70;;;2.30;;
23232;SDS011;11785;49.500;8.288;2023-05-07T09:40:47;3.75;;;1.92;;
23232;SDS011;11785;49.500;8.288;2023-05-07T09:43:36;2.45;;;2.25;;
23232;SDS011;11785;49.500;8.288;2023-05-07T09:46:03;2.80;;;2.25;;
23232;SDS011;11785;49.500;8.288;2023-05-07T09:48:34;3.53;;;2.30;;
23232;SDS011;11785;49.500;8.288;2023-05-07T09:51:03;4.13;;;1.95;;
23232;SDS011;11785;49.500;8.288;2023-05-07T09:56:02;3.65;;;2.03;;
23232;SDS011;11785;49.500;8.288;2023-05-07T09:58:29;3.03;;;2.13;;
23232;SDS011;11785;49.500;8.288;2023-05-07T10:00:55;4.10;;;3.22;;
23232;SDS011;11785;49.500;8.288;2023-05-07T10:03:22;4.70;;;2.65;;
23232;SDS011;11785;49.500;8.288;2023-05-07T10:05:52;6.20;;;2.78;;
23232;SDS011;11785;49.500;8.288;2023-05-07T10:08:19;5.10;;;3.20;;
23232;SDS011;11785;49.500;8.288;2023-05-07T10:10:45;6.82;;;5.00;;
23232;SDS011;11785;49.500;8.288;2023-05-07T10:13:11;3.83;;;3.03;;
23232;SDS011;11785;49.500;8.288;2023-05-07T10:15:37;2.65;;;2.45;;
23232;SDS011;11785;49.500;8.288;2023-05-07T10:18:04;3.42;;;2.00;;
23232;SDS011;11785;49.500;8.288;2023-05-07T10:20:32;4.40;;;2.38;;
23232;SDS011;11785;49.500;8.288;2023-05-07T10:22:59;4.95;;;2.90;;
23232;SDS011;11785;49.500;8.288;2023-05-07T10:25:29;3.42;;;2.42;;
23232;SDS011;11785;49.500;8.288;2023-05-07T10:27:57;5.78;;;2.53;;
23232;SDS011;11785;49.500;8.288;2023-05-07T10:30:32;2.45;;;2.25;;
23232;SDS011;11785;49.500;8.288;2023-05-07T10:33:08;5.65;;;2.58;;
23232;SDS011;11785;49.500;8.288;2023-05-07T10:35:42;3.63;;;2.50;;
23232;SDS011;11785;49.500;8.288;2023-05-07T10:38:10;6.05;;;2.40;;
23232;SDS011;11785;49.500;8.288;2023-05-07T10:40:35;3.30;;;2.17;;
23232;SDS011;11785;49.500;8.288;2023-05-07T10:43:02;3.95;;;1.88;;
23232;SDS011;11785;49.500;8.288;2023-05-07T10:45:29;3.15;;;2.42;;
23232;SDS011;11785;49.500;8.288;2023-05-07T10:48:12;3.22;;;2.65;;
23232;SDS011;11785;49.500;8.288;2023-05-07T10:50:42;3.97;;;2.72;;
23232;SDS011;11785;49.500;8.288;2023-05-07T10:58:44;4.80;;;2.70;;
23232;SDS011;11785;49.500;8.288;2023-05-07T11:01:09;3.25;;;2.80;;
23232;SDS011;11785;49.500;8.288;2023-05-07T11:03:37;5.32;;;3.10;;
23232;SDS011;11785;49.500;8.288;2023-05-07T11:06:42;6.65;;;3.35;;
23232;SDS011;11785;49.500;8.288;2023-05-07T11:15:08;2.70;;;2.22;;
23232;SDS011;11785;49.500;8.288;2023-05-07T11:17:34;3.47;;;2.30;;
23232;SDS011;11785;49.500;8.288;2023-05-07T11:20:17;3.10;;;2.63;;
23232;SDS011;11785;49.500;8.288;2023-05-07T11:22:43;4.15;;;2.00;;
23232;SDS011;11785;49.500;8.288;2023-05-07T11:25:08;6.50;;;2.40;;
23232;SDS011;11785;49.500;8.288;2023-05-07T11:27:34;6.10;;;2.70;;
23232;SDS011;11785;49.500;8.288;2023-05-07T11:30:03;4.68;;;2.70;;
23232;SDS011;11785;49.500;8.288;2023-05-07T11:32:29;5.93;;;2.42;;
23232;SDS011;11785;49.500;8.288;2023-05-07T11:34:56;4.53;;;3.10;;
23232;SDS011;11785;49.500;8.288;2023-05-07T11:37:23;6.50;;;2.45;;
23232;SDS011;11785;49.500;8.288;2023-05-07T11:39:50;2.67;;;2.30;;
23232;SDS011;11785;49.500;8.288;2023-05-07T11:42:37;4.68;;;2.70;;
23232;SDS011;11785;49.500;8.288;2023-05-07T11:45:04;2.85;;;1.90;;
23232;SDS011;11785;49.500;8.288;2023-05-07T11:47:30;3.35;;;1.92;;
23232;SDS011;11785;49.500;8.288;2023-05-07T11:49:56;4.68;;;2.20;;
23232;SDS011;11785;49.500;8.288;2023-05-07T11:52:26;4.38;;;2.00;;
23232;SDS011;11785;49.500;8.288;2023-05-07T11:54:53;3.75;;;2.30;;
23232;SDS011;11785;49.500;8.288;2023-05-07T11:57:20;6.45;;;2.20;;
23232;SDS011;11785;49.500;8.288;2023-05-07T11:59:46;3.03;;;1.88;;
23232;SDS011;11785;49.500;8.288;2023-05-07T12:02:17;2.83;;;1.73;;
23232;SDS011;11785;49.500;8.288;2023-05-07T12:04:42;4.47;;;1.80;;
23232;SDS011;11785;49.500;8.288;2023-05-07T12:07:12;1.88;;;1.55;;
23232;SDS011;11785;49.500;8.288;2023-05-07T12:09:39;2.55;;;1.85;;
23232;SDS011;11785;49.500;8.288;2023-05-07T12:12:05;4.72;;;1.63;;
23232;SDS011;11785;49.500;8.288;2023-05-07T12:14:31;2.25;;;1.55;;
23232;SDS011;11785;49.500;8.288;2023-05-07T12:16:57;5.60;;;1.40;;
23232;SDS011;11785;49.500;8.288;2023-05-07T12:19:28;3.08;;;1.40;;
23232;SDS011;11785;49.500;8.288;2023-05-07T12:21:55;12.27;;;1.70;;
23232;SDS011;11785;49.500;8.288;2023-05-07T12:24:21;1.95;;;1.42;;
23232;SDS011;11785;49.500;8.288;2023-05-07T12:26:47;2.55;;;1.67;;
23232;SDS011;11785;49.500;8.288;2023-05-07T12:29:13;1.58;;;1.30;;
23232;SDS011;11785;49.500;8.288;2023-05-07T12:31:40;3.22;;;1.58;;
23232;SDS011;11785;49.500;8.288;2023-05-07T12:34:06;3.70;;;1.35;;
23232;SDS011;11785;49.500;8.288;2023-05-07T12:36:39;2.55;;;1.30;;
23232;SDS011;11785;49.500;8.288;2023-05-07T12:39:05;15.18;;;2.25;;
23232;SDS011;11785;49.500;8.288;2023-05-07T12:41:35;2.88;;;1.60;;
23232;SDS011;11785;49.500;8.288;2023-05-07T12:44:17;1.85;;;1.65;;
23232;SDS011;11785;49.500;8.288;2023-05-07T12:46:42;3.45;;;1.65;;
23232;SDS011;11785;49.500;8.288;2023-05-07T12:49:08;1.77;;;1.48;;
23232;SDS011;11785;49.500;8.288;2023-05-07T12:51:34;3.33;;;1.73;;
23232;SDS011;11785;49.500;8.288;2023-05-07T12:54:00;3.40;;;1.70;;
23232;SDS011;11785;49.500;8.288;2023-05-07T12:56:26;3.78;;;1.80;;
23232;SDS011;11785;49.500;8.288;2023-05-07T12:58:51;3.95;;;1.83;;
23232;SDS011;11785;49.500;8.288;2023-05-07T13:01:28;2.00;;;1.65;;
23232;SDS011;11785;49.500;8.288;2023-05-07T13:03:54;1.67;;;1.58;;
23232;SDS011;11785;49.500;8.288;2023-05-07T13:06:20;2.30;;;1.58;;
23232;SDS011;11785;49.500;8.288;2023-05-07T13:08:45;2.40;;;1.90;;
23232;SDS011;11785;49.500;8.288;2023-05-07T13:11:11;2.38;;;1.90;;
23232;SDS011;11785;49.500;8.288;2023-05-07T13:13:38;3.17;;;1.75;;
23232;SDS011;11785;49.500;8.288;2023-05-07T13:16:05;3.75;;;2.05;;
23232;SDS011;11785;49.500;8.288;2023-05-07T13:18:33;2.58;;;2.20;;
23232;SDS011;11785;49.500;8.288;2023-05-07T13:20:59;4.35;;;2.17;;
23232;SDS011;11785;49.500;8.288;2023-05-07T13:23:25;1.92;;;1.73;;
23232;SDS011;11785;49.500;8.288;2023-05-07T13:25:51;4.57;;;3.00;;
23232;SDS011;11785;49.500;8.288;2023-05-07T13:28:19;3.72;;;1.92;;
23232;SDS011;11785;49.500;8.288;2023-05-07T13:30:45;2.25;;;1.98;;
23232;SDS011;11785;49.500;8.288;2023-05-07T13:33:11;4.43;;;2.08;;
23232;SDS011;11785;49.500;8.288;2023-05-07T13:35:37;2.83;;;2.05;;
23232;SDS011;11785;49.500;8.288;2023-05-07T13:38:03;4.70;;;1.83;;
23232;SDS011;11785;49.500;8.288;2023-05-07T13:40:28;6.15;;;2.05;;
23232;SDS011;11785;49.500;8.288;2023-05-07T13:42:56;6.00;;;2.22;;
23232;SDS011;11785;49.500;8.288;2023-05-07T13:45:23;4.20;;;2.45;;
23232;SDS011;11785;49.500;8.288;2023-05-07T13:47:50;3.15;;;1.92;;
23232;SDS011;11785;49.500;8.288;2023-05-07T13:50:16;2.53;;;2.30;;
23232;SDS011;11785;49.500;8.288;2023-05-07T13:52:43;2.88;;;2.20;;
23232;SDS011;11785;49.500;8.288;2023-05-07T13:55:15;4.68;;;2.67;;
23232;SDS011;11785;49.500;8.288;2023-05-07T13:57:44;3.45;;;2.55;;
23232;SDS011;11785;49.500;8.288;2023-05-07T14:00:11;2.60;;;2.17;;
23232;SDS011;11785;49.500;8.288;2023-05-07T14:02:37;3.83;;;2.72;;
23232;SDS011;11785;49.500;8.288;2023-05-07T14:05:03;4.93;;;2.58;;
23232;SDS011;11785;49.500;8.288;2023-05-07T14:07:30;2.67;;;2.20;;
23232;SDS011;11785;49.500;8.288;2023-05-07T14:09:56;4.50;;;2.20;;
23232;SDS011;11785;49.500;8.288;2023-05-07T14:12:21;5.15;;;2.17;;
23232;SDS011;11785;49.500;8.288;2023-05-07T14:14:47;4.25;;;2.10;;
23232;SDS011;11785;49.500;8.288;2023-05-07T14:17:14;8.75;;;3.10;;
23232;SDS011;11785;49.500;8.288;2023-05-07T14:19:41;3.35;;;2.50;;
23232;SDS011;11785;49.500;8.288;2023-05-07T14:22:06;5.57;;;2.95;;
23232;SDS011;11785;49.500;8.288;2023-05-07T14:24:32;7.50;;;3.67;;
23232;SDS011;11785;49.500;8.288;2023-05-07T14:26:58;5.47;;;3.42;;
23232;SDS011;11785;49.500;8.288;2023-05-07T14:29:23;5.65;;;2.88;;
23232;SDS011;11785;49.500;8.288;2023-05-07T14:31:49;2.63;;;2.25;;
23232;SDS011;11785;49.500;8.288;2023-05-07T14:34:14;2.47;;;2.03;;
23232;SDS011;11785;49.500;8.288;2023-05-07T14:36:40;5.28;;;1.95;;
23232;SDS011;11785;49.500;8.288;2023-05-07T14:39:05;6.18;;;2.65;;
23232;SDS011;11785;49.500;8.288;2023-05-07T14:41:31;3.75;;;2.45;;
23232;SDS011;11785;49.500;8.288;2023-05-07T14:43:58;4.00;;;2.35;;
23232;SDS011;11785;49.500;8.288;2023-05-07T14:46:23;5.53;;;2.55;;
23232;SDS011;11785;49.500;8.288;2023-05-07T14:48:49;6.43;;;3.15;;
23232;SDS011;11785;49.500;8.288;2023-05-07T14:51:15;10.57;;;3.72;;
23232;SDS011;11785;49.500;8.288;2023-05-07T14:53:41;5.65;;;3.60;;
23232;SDS011;11785;49.500;8.288;2023-05-07T14:56:07;8.80;;;3.25;;
23232;SDS011;11785;49.500;8.288;2023-05-07T14:58:33;6.63;;;3.50;;
23232;SDS011;11785;49.500;8.288;2023-05-07T15:00:59;6.30;;;2.95;;